Eurika — LYRZ — position and weather

sailwx.info

Track history (hours):
 
Tides and Currents Weather Stations Pressure Air Temp Water Temp Dewpoint Dewpoint Depression Visibility Wind Speed Wind Dir Waves Ship Positions

Eurika

Last reported at 2017-Aug-16 01:52 UTC. Time now 2017-Aug-20 08:04 UTC.
Position N 43°38' E 004°37'.

Length 79 m; draft 3.2 m.

MMSI: 277335000.

Date/timePositionNaut miles runAvg speedWind from/ knotsBaromVisibWave heightAir tempDewpointWater temp
2017-Aug-16 01:52N 43°38' E 004°37'3 6.3
2017-Aug-16 01:19N 43°35' E 004°40'2 7.5
2017-Aug-16 01:00N 43°34' E 004°42'4 7.4
2017-Aug-16 00:30N 43°31' E 004°44'4 7.1
2017-Aug-15 23:59N 43°27' E 004°44'3 6.2
2017-Aug-15 23:30N 43°24' E 004°46'2 3.3
2017-Aug-15 22:52N 43°23' E 004°49'5 4.3
2017-Aug-15 21:45N 43°23' E 004°55'2 8.1
2017-Aug-15 21:27N 43°22' E 004°58'3 6.1
2017-Aug-15 21:00N 43°20' E 004°59'3 5.9
2017-Aug-15 20:30N 43°17' E 005°01'3 5.9
2017-Aug-15 20:00N 43°15' E 005°04'3 5.8
2017-Aug-15 19:30N 43°13' E 005°07'3 6.1
2017-Aug-15 19:00N 43°11' E 005°10'3 6.4
2017-Aug-15 18:30N 43°10' E 005°14'4 7.3
2017-Aug-15 18:00N 43°08' E 005°19'4 7.8
2017-Aug-15 17:30N 43°06' E 005°23'4 7.7
2017-Aug-15 17:00N 43°04' E 005°27'4 7.8
2017-Aug-15 16:30N 43°01' E 005°32'4 7.6
2017-Aug-15 16:00N 42°59' E 005°35'4 7.9
2017-Aug-15 15:30N 42°56' E 005°39'4 7.6
2017-Aug-15 15:00N 42°54' E 005°43'4 7.9
2017-Aug-15 14:30N 42°51' E 005°47'4 7.9
2017-Aug-15 14:00N 42°48' E 005°51'4 8.0
2017-Aug-15 13:30N 42°45' E 005°55'21 7.6
2017-Aug-15 10:43N 42°31' E 006°17'135 7.0
2017-Aug-14 15:32N 40°56' E 008°25'1 6.7
2017-Aug-14 15:21N 40°55' E 008°25'2 6.8
2017-Aug-14 14:59N 40°52' E 008°24'2 4.4
2017-Aug-14 14:29N 40°51' E 008°23'0 0.0
2017-Aug-14 05:59N 40°50' E 008°23'0 0.7
2017-Aug-14 05:30N 40°51' E 008°23'2 4.0
2017-Aug-14 05:00N 40°52' E 008°25'  
2017-Aug-10 14:00N 40°39' E 013°51'21 6.4
2017-Aug-10 10:46N 40°41' E 014°18'2 6.7
2017-Aug-10 10:30N 40°41' E 014°20'2 0.1
2017-Aug-09 17:30N 40°41' E 014°23'4 7.1
2017-Aug-09 16:59N 40°40' E 014°18'9 7.2
2017-Aug-09 15:44N 40°38' E 014°06'4 7.3
2017-Aug-09 15:12N 40°38' E 014°01'1 7.3
2017-Aug-09 15:00N 40°38' E 013°59'4 7.2
2017-Aug-09 14:26N 40°38' E 013°54'3 7.2
2017-Aug-09 14:00N 40°38' E 013°50'4 7.8
2017-Aug-09 13:31N 40°40' E 013°45'4 7.9
2017-Aug-09 12:58N 40°43' E 013°41'4 7.9
2017-Aug-09 12:30N 40°45' E 013°37'4 7.9
2017-Aug-09 11:57N 40°48' E 013°33'130 7.9
2017-Aug-08 19:27N 41°52' E 011°03'3 7.2
2017-Aug-08 19:00N 41°54' E 010°59'3 7.1
2017-Aug-08 18:30N 41°55' E 010°55'85 7.1
2017-Aug-08 06:29N 42°58' E 009°37'6 8.1
2017-Aug-08 05:48N 43°04' E 009°36'3 8.8
2017-Aug-08 05:30N 43°06' E 009°34'5 9.0
2017-Aug-08 04:57N 43°11' E 009°31'5 9.0
2017-Aug-08 04:25N 43°15' E 009°29'8 8.5
2017-Aug-08 03:30N 43°22' E 009°26'4 8.4
2017-Aug-08 03:00N 43°26' E 009°24'4 8.5
2017-Aug-08 02:30N 43°30' E 009°22'4 8.3
2017-Aug-08 02:00N 43°34' E 009°21'4 8.2
2017-Aug-08 01:31N 43°38' E 009°19'4 8.1
2017-Aug-08 01:00N 43°42' E 009°17'4 7.9
2017-Aug-08 00:31N 43°46' E 009°15'4 8.0
2017-Aug-08 00:01N 43°49' E 009°12'4 7.9
2017-Aug-07 23:30N 43°53' E 009°11'4 7.8
2017-Aug-07 23:00N 43°57' E 009°09'4 7.9
2017-Aug-07 22:31N 44°00' E 009°06'4 8.0
2017-Aug-07 22:01N 44°04' E 009°04'4 8.1
2017-Aug-07 21:31N 44°08' E 009°02'4 8.1
2017-Aug-07 20:58N 44°12' E 008°59'4 8.2
2017-Aug-07 20:30N 44°15' E 008°57'4 8.4
2017-Aug-07 20:00N 44°19' E 008°56'4 8.5
2017-Aug-07 19:30N 44°23' E 008°54'1 2.4
2017-Aug-07 18:59N 44°24' E 008°53'0 0.0
2017-Aug-07 18:29N 44°24' E 008°53'0 0.0
2017-Aug-07 18:00N 44°24' E 008°53'0 0.0
2017-Aug-07 17:30N 44°24' E 008°53'0 0.0
2017-Aug-07 17:00N 44°24' E 008°53'0 0.0
2017-Aug-07 16:30N 44°24' E 008°53'0 0.0
2017-Aug-07 16:00N 44°24' E 008°53'0 0.0
2017-Aug-07 15:30N 44°24' E 008°53'0 0.0
2017-Aug-07 15:00N 44°24' E 008°53'0 0.0
2017-Aug-07 14:30N 44°24' E 008°53'0 0.0
2017-Aug-07 14:00N 44°24' E 008°53'0 0.0
2017-Aug-07 13:30N 44°24' E 008°53'0 0.0
2017-Aug-07 13:00N 44°24' E 008°53'0 0.0
2017-Aug-07 12:30N 44°24' E 008°53'0 0.0
2017-Aug-07 12:00N 44°24' E 008°53'0 0.0
2017-Aug-07 11:30N 44°24' E 008°53'0 0.0
2017-Aug-07 11:00N 44°24' E 008°53'0 0.0
2017-Aug-07 10:30N 44°24' E 008°53'0 0.0
2017-Aug-07 10:00N 44°24' E 008°53'0 0.0
2017-Aug-07 09:30N 44°24' E 008°53'0 0.0
2017-Aug-07 09:00N 44°24' E 008°53'0 0.0
2017-Aug-07 08:30N 44°24' E 008°53'0 0.0
2017-Aug-07 08:00N 44°24' E 008°53'0 0.0
2017-Aug-07 07:30N 44°24' E 008°53'0 0.0
2017-Aug-07 07:00N 44°24' E 008°53'0 0.0
2017-Aug-07 06:30N 44°24' E 008°53'0 0.0
2017-Aug-07 06:00N 44°24' E 008°53'0 0.0
2017-Aug-07 05:30N 44°24' E 008°53'0 0.0
2017-Aug-07 05:00N 44°24' E 008°53'0 0.0
2017-Aug-07 04:30N 44°24' E 008°53'3 6.1
2017-Aug-07 04:00N 44°23' E 008°57'3 5.4
2017-Aug-07 03:30N 44°21' E 008°59'3 4.8
2017-Aug-07 02:59N 44°19' E 009°02'3 4.7
2017-Aug-07 02:22N 44°18' E 009°05'2 4.8
2017-Aug-07 01:58N 44°17' E 009°07'2 4.9
2017-Aug-07 01:30N 44°15' E 009°10'2 5.0
2017-Aug-07 01:00N 44°14' E 009°13'2 5.0
2017-Aug-07 00:30N 44°12' E 009°16'2 5.0
2017-Aug-07 00:00N 44°11' E 009°19'2 4.9
2017-Aug-06 23:30N 44°10' E 009°22'2 4.8
2017-Aug-06 23:00N 44°09' E 009°25'2 4.7
2017-Aug-06 22:30N 44°08' E 009°28'2 4.5
2017-Aug-06 22:00N 44°07' E 009°30'2 4.3
2017-Aug-06 21:30N 44°06' E 009°33'2 4.2
2017-Aug-06 21:00N 44°04' E 009°35'2 4.2
2017-Aug-06 20:30N 44°03' E 009°38'2 4.1
2017-Aug-06 20:00N 44°02' E 009°40'2 4.1
2017-Aug-06 19:30N 44°01' E 009°43'2 4.0
2017-Aug-06 19:00N 44°01' E 009°45'2 4.0
2017-Aug-06 18:30N 44°00' E 009°48'2 4.2
2017-Aug-06 18:00N 43°59' E 009°51'0 0.3
2017-Aug-06 17:27N 43°59' E 009°51'0 0.0
2017-Aug-06 17:00N 43°59' E 009°51'0 0.0
2017-Aug-06 16:30N 43°59' E 009°51'0 0.0
2017-Aug-06 16:00N 43°59' E 009°51'0 0.0
2017-Aug-06 15:30N 43°59' E 009°51'0 0.0
2017-Aug-06 14:57N 43°59' E 009°51'0 0.0
2017-Aug-06 14:21N 43°59' E 009°51'0 0.0
2017-Aug-06 13:30N 43°59' E 009°51'0 0.0
2017-Aug-06 13:00N 43°59' E 009°51'0 0.0
2017-Aug-06 12:30N 43°59' E 009°51'0 0.0
2017-Aug-06 11:57N 43°59' E 009°51'0 0.0
2017-Aug-06 11:30N 43°59' E 009°51'0 0.0
2017-Aug-06 11:00N 43°59' E 009°51'0 0.0
2017-Aug-06 10:30N 43°59' E 009°51'0 0.0
2017-Aug-06 10:00N 43°59' E 009°51'0 0.0
2017-Aug-06 09:30N 43°59' E 009°51'0 0.1
2017-Aug-06 09:00N 43°59' E 009°51'0 0.1
2017-Aug-06 08:30N 43°59' E 009°51'0 0.1
2017-Aug-06 08:00N 43°59' E 009°51'0 0.1
2017-Aug-06 07:30N 43°59' E 009°51'0 0.1
2017-Aug-06 06:57N 43°59' E 009°51'0 0.1
2017-Aug-06 06:30N 43°59' E 009°51'0 0.0
2017-Aug-06 06:00N 43°59' E 009°51'0 0.0
2017-Aug-06 05:30N 43°59' E 009°51'0 0.1
2017-Aug-06 05:00N 43°59' E 009°51'0 0.1
2017-Aug-06 04:30N 43°59' E 009°51'0 0.0
2017-Aug-06 04:00N 43°59' E 009°51'0 0.0
2017-Aug-06 03:30N 43°59' E 009°51'0 0.1
2017-Aug-06 03:00N 43°59' E 009°51'0 0.0
2017-Aug-06 02:30N 43°59' E 009°51'0 0.1
2017-Aug-06 02:00N 43°59' E 009°51'  
Track history (hours):
 
Tides and Currents Weather Stations Pressure Air Temp Water Temp Dewpoint Dewpoint Depression Visibility Wind Speed Wind Dir Waves Ship Positions

Eurika

Last reported at 2017-Aug-16 01:52 UTC. Time now 2017-Aug-20 08:04 UTC.
Position N 43°38' E 004°37'.

Length 79 m; draft 3.2 m.

MMSI: 277335000.

Date/timePositionNaut miles runAvg speedWind from/ knotsBaromVisibWave heightAir tempDewpointWater temp
2017-Aug-16 01:52N 43°38' E 004°37'3 6.3
2017-Aug-16 01:19N 43°35' E 004°40'2 7.5
2017-Aug-16 01:00N 43°34' E 004°42'4 7.4
2017-Aug-16 00:30N 43°31' E 004°44'4 7.1
2017-Aug-15 23:59N 43°27' E 004°44'3 6.2
2017-Aug-15 23:30N 43°24' E 004°46'2 3.3
2017-Aug-15 22:52N 43°23' E 004°49'5 4.3
2017-Aug-15 21:45N 43°23' E 004°55'2 8.1
2017-Aug-15 21:27N 43°22' E 004°58'3 6.1
2017-Aug-15 21:00N 43°20' E 004°59'3 5.9
2017-Aug-15 20:30N 43°17' E 005°01'3 5.9
2017-Aug-15 20:00N 43°15' E 005°04'3 5.8
2017-Aug-15 19:30N 43°13' E 005°07'3 6.1
2017-Aug-15 19:00N 43°11' E 005°10'3 6.4
2017-Aug-15 18:30N 43°10' E 005°14'4 7.3
2017-Aug-15 18:00N 43°08' E 005°19'4 7.8
2017-Aug-15 17:30N 43°06' E 005°23'4 7.7
2017-Aug-15 17:00N 43°04' E 005°27'4 7.8
2017-Aug-15 16:30N 43°01' E 005°32'4 7.6
2017-Aug-15 16:00N 42°59' E 005°35'4 7.9
2017-Aug-15 15:30N 42°56' E 005°39'4 7.6
2017-Aug-15 15:00N 42°54' E 005°43'4 7.9
2017-Aug-15 14:30N 42°51' E 005°47'4 7.9
2017-Aug-15 14:00N 42°48' E 005°51'4 8.0
2017-Aug-15 13:30N 42°45' E 005°55'21 7.6
2017-Aug-15 10:43N 42°31' E 006°17'135 7.0
2017-Aug-14 15:32N 40°56' E 008°25'1 6.7
2017-Aug-14 15:21N 40°55' E 008°25'2 6.8
2017-Aug-14 14:59N 40°52' E 008°24'2 4.4
2017-Aug-14 14:29N 40°51' E 008°23'0 0.0
2017-Aug-14 05:59N 40°50' E 008°23'0 0.7
2017-Aug-14 05:30N 40°51' E 008°23'2 4.0
2017-Aug-14 05:00N 40°52' E 008°25'  
2017-Aug-10 14:00N 40°39' E 013°51'21 6.4
2017-Aug-10 10:46N 40°41' E 014°18'2 6.7
2017-Aug-10 10:30N 40°41' E 014°20'2 0.1
2017-Aug-09 17:30N 40°41' E 014°23'4 7.1
2017-Aug-09 16:59N 40°40' E 014°18'9 7.2
2017-Aug-09 15:44N 40°38' E 014°06'4 7.3
2017-Aug-09 15:12N 40°38' E 014°01'1 7.3
2017-Aug-09 15:00N 40°38' E 013°59'4 7.2
2017-Aug-09 14:26N 40°38' E 013°54'3 7.2
2017-Aug-09 14:00N 40°38' E 013°50'4 7.8
2017-Aug-09 13:31N 40°40' E 013°45'4 7.9
2017-Aug-09 12:58N 40°43' E 013°41'4 7.9
2017-Aug-09 12:30N 40°45' E 013°37'4 7.9
2017-Aug-09 11:57N 40°48' E 013°33'130 7.9
2017-Aug-08 19:27N 41°52' E 011°03'3 7.2
2017-Aug-08 19:00N 41°54' E 010°59'3 7.1
2017-Aug-08 18:30N 41°55' E 010°55'85 7.1
2017-Aug-08 06:29N 42°58' E 009°37'6 8.1
2017-Aug-08 05:48N 43°04' E 009°36'3 8.8
2017-Aug-08 05:30N 43°06' E 009°34'5 9.0
2017-Aug-08 04:57N 43°11' E 009°31'5 9.0
2017-Aug-08 04:25N 43°15' E 009°29'8 8.5
2017-Aug-08 03:30N 43°22' E 009°26'4 8.4
2017-Aug-08 03:00N 43°26' E 009°24'4 8.5
2017-Aug-08 02:30N 43°30' E 009°22'4 8.3
2017-Aug-08 02:00N 43°34' E 009°21'4 8.2
2017-Aug-08 01:31N 43°38' E 009°19'4 8.1
2017-Aug-08 01:00N 43°42' E 009°17'4 7.9
2017-Aug-08 00:31N 43°46' E 009°15'4 8.0
2017-Aug-08 00:01N 43°49' E 009°12'4 7.9
2017-Aug-07 23:30N 43°53' E 009°11'4 7.8
2017-Aug-07 23:00N 43°57' E 009°09'4 7.9
2017-Aug-07 22:31N 44°00' E 009°06'4 8.0
2017-Aug-07 22:01N 44°04' E 009°04'4 8.1
2017-Aug-07 21:31N 44°08' E 009°02'4 8.1
2017-Aug-07 20:58N 44°12' E 008°59'4 8.2
2017-Aug-07 20:30N 44°15' E 008°57'4 8.4
2017-Aug-07 20:00N 44°19' E 008°56'4 8.5
2017-Aug-07 19:30N 44°23' E 008°54'1 2.4
2017-Aug-07 18:59N 44°24' E 008°53'0 0.0
2017-Aug-07 18:29N 44°24' E 008°53'0 0.0
2017-Aug-07 18:00N 44°24' E 008°53'0 0.0
2017-Aug-07 17:30N 44°24' E 008°53'0 0.0
2017-Aug-07 17:00N 44°24' E 008°53'0 0.0
2017-Aug-07 16:30N 44°24' E 008°53'0 0.0
2017-Aug-07 16:00N 44°24' E 008°53'0 0.0
2017-Aug-07 15:30N 44°24' E 008°53'0 0.0
2017-Aug-07 15:00N 44°24' E 008°53'0 0.0
2017-Aug-07 14:30N 44°24' E 008°53'0 0.0
2017-Aug-07 14:00N 44°24' E 008°53'0 0.0
2017-Aug-07 13:30N 44°24' E 008°53'0 0.0
2017-Aug-07 13:00N 44°24' E 008°53'0 0.0
2017-Aug-07 12:30N 44°24' E 008°53'0 0.0
2017-Aug-07 12:00N 44°24' E 008°53'0 0.0
2017-Aug-07 11:30N 44°24' E 008°53'0 0.0
2017-Aug-07 11:00N 44°24' E 008°53'0 0.0
2017-Aug-07 10:30N 44°24' E 008°53'0 0.0
2017-Aug-07 10:00N 44°24' E 008°53'0 0.0
2017-Aug-07 09:30N 44°24' E 008°53'0 0.0
2017-Aug-07 09:00N 44°24' E 008°53'0 0.0
2017-Aug-07 08:30N 44°24' E 008°53'0 0.0
2017-Aug-07 08:00N 44°24' E 008°53'0 0.0
2017-Aug-07 07:30N 44°24' E 008°53'0 0.0
2017-Aug-07 07:00N 44°24' E 008°53'0 0.0
2017-Aug-07 06:30N 44°24' E 008°53'0 0.0
2017-Aug-07 06:00N 44°24' E 008°53'0 0.0
2017-Aug-07 05:30N 44°24' E 008°53'0 0.0
2017-Aug-07 05:00N 44°24' E 008°53'0 0.0
2017-Aug-07 04:30N 44°24' E 008°53'3 6.1
2017-Aug-07 04:00N 44°23' E 008°57'3 5.4
2017-Aug-07 03:30N 44°21' E 008°59'3 4.8
2017-Aug-07 02:59N 44°19' E 009°02'3 4.7
2017-Aug-07 02:22N 44°18' E 009°05'2 4.8
2017-Aug-07 01:58N 44°17' E 009°07'2 4.9
2017-Aug-07 01:30N 44°15' E 009°10'2 5.0
2017-Aug-07 01:00N 44°14' E 009°13'2 5.0
2017-Aug-07 00:30N 44°12' E 009°16'2 5.0
2017-Aug-07 00:00N 44°11' E 009°19'2 4.9
2017-Aug-06 23:30N 44°10' E 009°22'2 4.8
2017-Aug-06 23:00N 44°09' E 009°25'2 4.7
2017-Aug-06 22:30N 44°08' E 009°28'2 4.5
2017-Aug-06 22:00N 44°07' E 009°30'2 4.3
2017-Aug-06 21:30N 44°06' E 009°33'2 4.2
2017-Aug-06 21:00N 44°04' E 009°35'2 4.2
2017-Aug-06 20:30N 44°03' E 009°38'2 4.1
2017-Aug-06 20:00N 44°02' E 009°40'2 4.1
2017-Aug-06 19:30N 44°01' E 009°43'2 4.0
2017-Aug-06 19:00N 44°01' E 009°45'2 4.0
2017-Aug-06 18:30N 44°00' E 009°48'2 4.2
2017-Aug-06 18:00N 43°59' E 009°51'0 0.3
2017-Aug-06 17:27N 43°59' E 009°51'0 0.0
2017-Aug-06 17:00N 43°59' E 009°51'0 0.0
2017-Aug-06 16:30N 43°59' E 009°51'0 0.0
2017-Aug-06 16:00N 43°59' E 009°51'0 0.0
2017-Aug-06 15:30N 43°59' E 009°51'0 0.0
2017-Aug-06 14:57N 43°59' E 009°51'0 0.0
2017-Aug-06 14:21N 43°59' E 009°51'0 0.0
2017-Aug-06 13:30N 43°59' E 009°51'0 0.0
2017-Aug-06 13:00N 43°59' E 009°51'0 0.0
2017-Aug-06 12:30N 43°59' E 009°51'0 0.0
2017-Aug-06 11:57N 43°59' E 009°51'0 0.0
2017-Aug-06 11:30N 43°59' E 009°51'0 0.0
2017-Aug-06 11:00N 43°59' E 009°51'0 0.0
2017-Aug-06 10:30N 43°59' E 009°51'0 0.0
2017-Aug-06 10:00N 43°59' E 009°51'0 0.0
2017-Aug-06 09:30N 43°59' E 009°51'0 0.1
2017-Aug-06 09:00N 43°59' E 009°51'0 0.1
2017-Aug-06 08:30N 43°59' E 009°51'0 0.1
2017-Aug-06 08:00N 43°59' E 009°51'0 0.1
2017-Aug-06 07:30N 43°59' E 009°51'0 0.1
2017-Aug-06 06:57N 43°59' E 009°51'0 0.1
2017-Aug-06 06:30N 43°59' E 009°51'0 0.0
2017-Aug-06 06:00N 43°59' E 009°51'0 0.0
2017-Aug-06 05:30N 43°59' E 009°51'0 0.1
2017-Aug-06 05:00N 43°59' E 009°51'0 0.1
2017-Aug-06 04:30N 43°59' E 009°51'0 0.0
2017-Aug-06 04:00N 43°59' E 009°51'0 0.0
2017-Aug-06 03:30N 43°59' E 009°51'0 0.1
2017-Aug-06 03:00N 43°59' E 009°51'0 0.0
2017-Aug-06 02:30N 43°59' E 009°51'0 0.1
2017-Aug-06 02:00N 43°59' E 009°51'  

Dump ship's entire track history